createdAt,value
2018-08-17T00:01:59.840Z,4.30
2018-08-17T00:04:29.300Z,3.57
2018-08-17T00:06:59.604Z,4.20
2018-08-17T00:09:29.115Z,4.50
2018-08-17T00:11:58.652Z,4.20
2018-08-17T00:14:28.043Z,3.93
2018-08-17T00:16:57.468Z,4.40
2018-08-17T00:19:26.789Z,3.80
2018-08-17T00:21:56.235Z,4.10
2018-08-17T00:24:25.735Z,3.90
2018-08-17T00:26:55.318Z,4.00
2018-08-17T00:29:24.746Z,3.80
2018-08-17T00:31:54.241Z,4.37
2018-08-17T00:34:24.329Z,4.43
2018-08-17T00:36:53.638Z,4.90
2018-08-17T00:39:23.077Z,4.17
2018-08-17T00:41:52.423Z,3.77
2018-08-17T00:44:21.606Z,4.30
2018-08-17T00:46:50.703Z,4.03
2018-08-17T00:49:20.091Z,4.33
2018-08-17T00:51:49.171Z,3.87
2018-08-17T00:54:18.444Z,3.70
2018-08-17T00:56:47.741Z,4.30
2018-08-17T00:59:17.305Z,4.00
2018-08-17T01:01:46.420Z,4.60
2018-08-17T01:04:15.750Z,4.37
2018-08-17T01:06:45.114Z,4.33
2018-08-17T01:09:14.362Z,3.40
2018-08-17T01:11:43.858Z,4.40
2018-08-17T01:14:13.141Z,3.97
2018-08-17T01:16:42.723Z,4.20
2018-08-17T01:19:11.998Z,4.10
2018-08-17T01:21:41.336Z,3.70
2018-08-17T01:24:10.725Z,4.13
2018-08-17T01:26:40.359Z,4.40
2018-08-17T01:29:09.605Z,4.30
2018-08-17T01:31:38.945Z,4.10
2018-08-17T01:34:08.188Z,3.67
2018-08-17T01:36:37.537Z,4.23
2018-08-17T01:39:08.726Z,4.67
2018-08-17T01:41:38.078Z,4.83
2018-08-17T01:44:07.501Z,4.00
2018-08-17T01:46:36.867Z,4.30
2018-08-17T01:49:06.328Z,4.60
2018-08-17T01:51:35.522Z,4.10
2018-08-17T01:54:05.277Z,3.57
2018-08-17T01:56:34.287Z,4.20
2018-08-17T01:59:03.315Z,4.27
2018-08-17T02:01:32.339Z,4.07
2018-08-17T02:04:01.411Z,4.60
2018-08-17T02:06:30.428Z,4.13
2018-08-17T02:08:59.421Z,4.70
2018-08-17T02:11:28.442Z,4.20
2018-08-17T02:13:57.418Z,4.40
2018-08-17T02:16:27.343Z,4.90
2018-08-17T02:18:56.389Z,4.83
2018-08-17T02:21:25.456Z,4.50
2018-08-17T02:23:54.573Z,4.47
2018-08-17T02:26:23.672Z,4.67
2018-08-17T02:28:52.734Z,5.33
2018-08-17T02:31:21.716Z,4.20
2018-08-17T02:33:50.734Z,5.10
2018-08-17T02:36:19.761Z,4.57
2018-08-17T02:38:48.751Z,4.20
2018-08-17T02:41:17.791Z,3.90
2018-08-17T02:43:46.835Z,4.13
2018-08-17T02:46:16.079Z,4.47
2018-08-17T02:48:45.133Z,3.70
2018-08-17T02:51:14.168Z,4.00
2018-08-17T02:53:43.165Z,4.47
2018-08-17T02:56:12.214Z,4.30
2018-08-17T02:58:41.177Z,4.93
2018-08-17T03:01:10.303Z,4.23
2018-08-17T03:03:39.359Z,3.53
2018-08-17T03:06:08.658Z,6.33
2018-08-17T03:08:37.755Z,4.50
2018-08-17T03:11:06.715Z,4.83
2018-08-17T03:13:35.888Z,4.83
2018-08-17T03:16:04.981Z,4.73
2018-08-17T03:18:33.989Z,3.97
2018-08-17T03:21:03.038Z,5.00
2018-08-17T03:23:32.243Z,4.40
2018-08-17T03:26:01.250Z,5.13
2018-08-17T03:28:30.359Z,4.80
2018-08-17T03:30:59.342Z,5.37
2018-08-17T03:33:28.397Z,5.20
2018-08-17T03:35:57.524Z,4.17
2018-08-17T03:38:26.733Z,4.73
2018-08-17T03:40:55.834Z,4.67
2018-08-17T03:43:24.836Z,5.10
2018-08-17T03:45:53.970Z,4.63
2018-08-17T03:48:23.523Z,5.33
2018-08-17T03:50:52.994Z,5.40
2018-08-17T03:53:22.502Z,4.50
2018-08-17T03:55:51.884Z,5.40
2018-08-17T03:58:21.312Z,4.43
2018-08-17T04:00:50.732Z,4.40
2018-08-17T04:03:20.060Z,4.70
2018-08-17T04:05:50.600Z,4.80
2018-08-17T04:08:20.194Z,5.07
2018-08-17T04:10:49.606Z,4.20
2018-08-17T04:13:19.100Z,4.00
2018-08-17T04:15:48.281Z,5.57
2018-08-17T04:18:17.656Z,4.83
2018-08-17T04:20:47.464Z,4.50
2018-08-17T04:23:17.229Z,4.80
2018-08-17T04:25:46.536Z,4.40
2018-08-17T04:28:15.740Z,4.80
2018-08-17T04:30:44.969Z,5.43
2018-08-17T04:33:14.445Z,4.50
2018-08-17T04:35:43.701Z,4.90
2018-08-17T04:38:13.019Z,5.33
2018-08-17T04:40:42.545Z,5.30
2018-08-17T04:43:11.869Z,5.70
2018-08-17T04:45:41.373Z,5.07
2018-08-17T04:48:11.647Z,4.90
2018-08-17T04:50:40.911Z,5.20
2018-08-17T04:53:10.301Z,4.90
2018-08-17T04:55:39.945Z,6.20
2018-08-17T04:58:09.031Z,7.67
2018-08-17T05:00:40.247Z,6.87
2018-08-17T05:03:09.932Z,9.50
2018-08-17T05:05:39.096Z,6.80
2018-08-17T05:08:08.432Z,5.70
2018-08-17T05:10:37.770Z,5.03
2018-08-17T05:13:07.313Z,6.50
2018-08-17T05:15:36.636Z,6.43
2018-08-17T05:18:06.367Z,5.37
2018-08-17T05:20:35.405Z,5.17
2018-08-17T05:23:04.645Z,6.73
2018-08-17T05:25:33.702Z,7.93
2018-08-17T05:28:02.890Z,6.50
2018-08-17T05:30:33.039Z,7.50
2018-08-17T05:33:02.073Z,7.30
2018-08-17T05:35:31.068Z,6.93
2018-08-17T05:38:00.401Z,8.57
2018-08-17T05:40:29.516Z,8.40
2018-08-17T05:42:58.537Z,7.47
2018-08-17T05:45:27.605Z,7.03
2018-08-17T05:47:56.628Z,7.37
2018-08-17T05:50:25.684Z,7.37
2018-08-17T05:52:55.495Z,6.23
2018-08-17T05:55:24.775Z,5.20
2018-08-17T05:57:54.166Z,5.10
2018-08-17T06:00:23.546Z,5.40
2018-08-17T06:02:53.003Z,5.90
2018-08-17T06:05:22.211Z,5.60
2018-08-17T06:07:51.275Z,6.57
2018-08-17T06:10:21.114Z,6.20
2018-08-17T06:12:50.210Z,6.07
2018-08-17T06:15:19.384Z,6.20
2018-08-17T06:17:49.373Z,5.53
2018-08-17T06:20:18.736Z,5.13
2018-08-17T06:22:48.755Z,5.10
2018-08-17T06:25:18.427Z,6.47
2018-08-17T06:27:47.649Z,6.60
2018-08-17T06:30:17.176Z,4.40
2018-08-17T06:32:47.063Z,4.87
2018-08-17T06:35:16.437Z,4.87
2018-08-17T06:37:45.874Z,5.60
2018-08-17T06:40:16.639Z,4.43
2018-08-17T06:42:47.136Z,5.20
2018-08-17T06:45:16.817Z,5.37
2018-08-17T06:47:46.233Z,5.03
2018-08-17T06:50:15.680Z,6.33
2018-08-17T06:52:45.337Z,5.23
2018-08-17T06:55:15.033Z,5.10
2018-08-17T06:57:44.963Z,5.27
2018-08-17T07:00:16.283Z,4.73
2018-08-17T07:02:46.660Z,5.13
2018-08-17T07:05:16.235Z,4.40
2018-08-17T07:07:46.444Z,5.50
2018-08-17T07:10:16.656Z,5.00
2018-08-17T07:12:45.901Z,3.90
2018-08-17T07:15:15.269Z,4.30
2018-08-17T07:17:44.424Z,3.87
2018-08-17T07:20:14.332Z,3.97
2018-08-17T07:22:44.488Z,4.10
2018-08-17T07:25:13.842Z,4.33
2018-08-17T07:27:43.900Z,3.90
2018-08-17T07:30:13.236Z,4.20
2018-08-17T07:32:42.797Z,3.67
2018-08-17T07:35:12.338Z,3.70
2018-08-17T07:37:41.937Z,4.10
2018-08-17T07:40:11.452Z,4.10
2018-08-17T07:42:40.938Z,4.03
2018-08-17T07:45:10.517Z,3.93
2018-08-17T07:47:39.873Z,3.40
2018-08-17T07:50:09.284Z,3.27
2018-08-17T07:52:38.808Z,4.17
2018-08-17T07:55:08.171Z,3.83
2018-08-17T07:57:37.595Z,3.30
2018-08-17T08:00:07.208Z,3.17
2018-08-17T08:02:37.241Z,3.70
2018-08-17T08:05:08.717Z,3.50
2018-08-17T08:07:38.232Z,3.60
2018-08-17T08:10:07.843Z,3.70
2018-08-17T08:12:37.235Z,3.90
2018-08-17T08:15:07.910Z,4.93
2018-08-17T08:17:38.452Z,3.80
2018-08-17T08:20:18.678Z,4.23
2018-08-17T08:22:48.199Z,3.80
2018-08-17T08:25:17.511Z,3.90
2018-08-17T08:27:46.873Z,3.97
2018-08-17T08:30:16.332Z,3.57
2018-08-17T08:32:45.764Z,3.47
2018-08-17T08:35:15.362Z,3.30
2018-08-17T08:37:44.752Z,3.77
2018-08-17T08:40:14.138Z,3.33
2018-08-17T08:42:43.429Z,3.60
2018-08-17T08:45:13.557Z,3.03
2018-08-17T08:47:43.001Z,3.47
2018-08-17T08:50:12.387Z,3.30
2018-08-17T08:52:41.976Z,3.03
2018-08-17T08:55:11.428Z,4.47
2018-08-17T08:57:40.821Z,3.03
2018-08-17T09:00:11.197Z,2.93
2018-08-17T09:02:40.538Z,3.27
2018-08-17T09:05:10.577Z,3.80
2018-08-17T09:07:40.077Z,3.27
2018-08-17T09:10:10.409Z,4.30
2018-08-17T09:12:40.152Z,3.27
2018-08-17T09:15:11.355Z,2.73
2018-08-17T09:17:41.847Z,3.07
2018-08-17T09:20:13.277Z,3.20
2018-08-17T09:22:42.826Z,2.60
2018-08-17T09:25:12.460Z,2.90
2018-08-17T09:27:42.299Z,2.10
2018-08-17T09:30:13.098Z,2.60
2018-08-17T09:32:42.593Z,2.43
2018-08-17T09:35:13.316Z,2.17
2018-08-17T09:37:42.526Z,2.30
2018-08-17T09:40:12.642Z,1.90
2018-08-17T09:42:41.892Z,2.23
2018-08-17T09:45:12.800Z,2.50
2018-08-17T09:47:42.077Z,2.60
2018-08-17T09:50:14.703Z,2.77
2018-08-17T09:52:44.417Z,2.10
2018-08-17T09:57:50.833Z,2.60
2018-08-17T10:00:20.049Z,2.17
2018-08-17T10:02:54.253Z,2.00
2018-08-17T10:05:28.332Z,1.87
2018-08-17T10:08:02.484Z,1.83
2018-08-17T10:10:31.763Z,1.87
2018-08-17T10:13:00.909Z,2.07
2018-08-17T10:15:29.982Z,2.30
2018-08-17T10:17:59.001Z,2.30
2018-08-17T10:20:28.218Z,3.33
2018-08-17T10:22:57.250Z,2.10
2018-08-17T10:25:27.438Z,2.10
2018-08-17T10:27:57.853Z,2.20
2018-08-17T10:30:27.540Z,1.83
2018-08-17T10:32:59.573Z,2.20
2018-08-17T10:35:36.485Z,2.00
2018-08-17T10:38:07.174Z,2.50
2018-08-17T10:40:36.588Z,1.70
2018-08-17T10:43:07.040Z,2.00
2018-08-17T10:45:36.652Z,2.03
2018-08-17T10:48:05.919Z,2.07
2018-08-17T10:50:35.683Z,2.13
2018-08-17T10:53:05.487Z,2.10
2018-08-17T10:55:40.463Z,1.80
2018-08-17T10:58:11.128Z,1.60
2018-08-17T11:00:40.330Z,1.47
2018-08-17T11:03:09.579Z,1.87
2018-08-17T11:05:38.874Z,2.03
2018-08-17T11:08:08.777Z,2.40
2018-08-17T11:10:38.717Z,2.10
2018-08-17T11:13:08.231Z,2.50
2018-08-17T11:15:37.392Z,2.10
2018-08-17T11:18:06.545Z,2.23
2018-08-17T11:20:35.709Z,1.90
2018-08-17T11:23:05.686Z,2.30
2018-08-17T11:25:34.704Z,1.70
2018-08-17T11:28:03.785Z,2.10
2018-08-17T11:30:32.776Z,1.53
2018-08-17T11:33:01.969Z,1.80
2018-08-17T11:35:31.570Z,2.10
2018-08-17T11:38:00.584Z,2.13
2018-08-17T11:40:29.644Z,2.57
2018-08-17T11:42:58.661Z,2.20
2018-08-17T11:45:28.254Z,1.90
2018-08-17T11:47:59.312Z,1.47
2018-08-17T11:50:28.545Z,1.60
2018-08-17T11:52:59.687Z,1.80
2018-08-17T11:55:30.881Z,1.77
2018-08-17T11:58:00.262Z,1.80
2018-08-17T12:00:33.963Z,1.43
2018-08-17T12:03:03.378Z,1.40
2018-08-17T12:05:32.647Z,1.60
2018-08-17T12:08:02.186Z,1.37
2018-08-17T12:10:32.206Z,1.57
2018-08-17T12:13:07.375Z,1.90
2018-08-17T12:15:44.974Z,1.73
2018-08-17T12:18:14.680Z,1.50
2018-08-17T12:20:43.990Z,1.67
2018-08-17T12:23:13.311Z,1.57
2018-08-17T12:25:47.801Z,1.30
2018-08-17T12:28:17.384Z,1.80
2018-08-17T12:30:46.655Z,2.23
2018-08-17T12:33:16.285Z,1.87
2018-08-17T12:35:45.606Z,1.20
2018-08-17T12:38:15.956Z,1.50
2018-08-17T12:40:46.191Z,1.23
2018-08-17T12:43:17.171Z,1.70
2018-08-17T12:45:46.486Z,1.83
2018-08-17T12:48:16.651Z,1.60
2018-08-17T12:50:46.401Z,1.43
2018-08-17T12:53:16.470Z,1.80
2018-08-17T12:55:45.866Z,1.40
2018-08-17T12:58:15.729Z,2.20
2018-08-17T13:00:44.985Z,1.93
2018-08-17T13:03:14.555Z,1.60
2018-08-17T13:05:43.913Z,1.57
2018-08-17T13:08:13.344Z,1.80
2018-08-17T13:10:42.615Z,1.63
2018-08-17T13:13:12.026Z,1.37
2018-08-17T13:16:14.803Z,1.33
2018-08-17T13:18:44.684Z,1.70
2018-08-17T13:21:14.194Z,1.93
2018-08-17T13:23:43.681Z,1.60
2018-08-17T13:26:12.908Z,1.90
2018-08-17T13:28:42.470Z,1.93
2018-08-17T13:31:11.707Z,2.13
2018-08-17T13:33:41.105Z,2.00
2018-08-17T13:36:10.478Z,1.23
2018-08-17T13:38:39.840Z,1.37
2018-08-17T13:41:09.270Z,1.80
2018-08-17T13:43:38.807Z,1.50
2018-08-17T13:46:08.651Z,1.40
2018-08-17T13:48:38.027Z,2.37
2018-08-17T13:51:07.884Z,1.70
2018-08-17T13:53:37.514Z,1.33
2018-08-17T13:56:06.929Z,1.90
2018-08-17T13:58:36.338Z,1.70
2018-08-17T14:01:05.679Z,1.70
2018-08-17T14:03:35.823Z,1.30
2018-08-17T14:06:05.382Z,2.00
2018-08-17T14:08:34.960Z,1.57
2018-08-17T14:11:04.867Z,1.60
2018-08-17T14:13:34.254Z,1.60
2018-08-17T14:16:03.685Z,1.70
2018-08-17T14:18:33.061Z,1.90
2018-08-17T14:21:02.585Z,1.63
2018-08-17T14:23:32.042Z,1.60
2018-08-17T14:26:01.444Z,2.10
2018-08-17T14:28:31.114Z,1.83
2018-08-17T14:31:00.466Z,1.40
2018-08-17T14:33:29.877Z,1.80
2018-08-17T14:35:59.385Z,1.70
2018-08-17T14:38:31.249Z,1.70
2018-08-17T14:41:00.950Z,1.70
2018-08-17T14:43:29.990Z,1.90
2018-08-17T14:45:59.094Z,1.87
2018-08-17T14:48:28.203Z,1.50
2018-08-17T14:50:57.915Z,1.50
2018-08-17T14:53:27.384Z,2.07
2018-08-17T14:55:57.531Z,1.60
2018-08-17T14:58:26.540Z,2.20
2018-08-17T15:00:55.757Z,2.07
2018-08-17T15:03:24.812Z,2.60
2018-08-17T15:05:54.358Z,1.40
2018-08-17T15:08:23.733Z,1.70
2018-08-17T15:10:53.180Z,2.73
2018-08-17T15:13:22.323Z,1.80
2018-08-17T15:15:51.452Z,2.00
2018-08-17T15:18:20.765Z,2.13
2018-08-17T15:20:50.011Z,1.70
2018-08-17T15:23:19.305Z,2.53
2018-08-17T15:25:48.574Z,1.90
2018-08-17T15:28:17.845Z,2.23
2018-08-17T15:30:46.930Z,2.37
2018-08-17T15:33:15.967Z,2.10
2018-08-17T15:35:45.865Z,2.00
2018-08-17T15:38:14.958Z,1.80
2018-08-17T15:40:44.346Z,2.23
2018-08-17T15:43:17.584Z,2.20
2018-08-17T15:45:49.154Z,1.97
2018-08-17T15:48:18.689Z,2.00
2018-08-17T15:50:47.741Z,2.20
2018-08-17T15:53:17.010Z,2.17
2018-08-17T15:55:46.051Z,1.80
2018-08-17T15:58:15.098Z,1.90
2018-08-17T16:00:44.127Z,2.43
2018-08-17T16:03:13.270Z,1.97
2018-08-17T16:05:42.330Z,2.47
2018-08-17T16:08:11.500Z,2.57
2018-08-17T16:10:40.776Z,1.93
2018-08-17T16:13:09.887Z,2.00
2018-08-17T16:15:38.936Z,2.00
2018-08-17T16:18:08.065Z,1.80
2018-08-17T16:20:37.180Z,1.83
2018-08-17T16:23:06.309Z,1.80
2018-08-17T16:25:35.341Z,2.47
2018-08-17T16:28:04.486Z,2.50
2018-08-17T16:30:33.667Z,2.30
2018-08-17T16:33:02.824Z,2.17
2018-08-17T16:35:31.925Z,2.63
2018-08-17T16:38:00.980Z,2.73
2018-08-17T16:40:32.478Z,1.83
2018-08-17T16:43:01.579Z,2.70
2018-08-17T16:45:30.675Z,1.90
2018-08-17T16:47:59.759Z,1.90
2018-08-17T16:50:29.013Z,2.60
2018-08-17T16:52:58.339Z,2.03
2018-08-17T16:55:27.494Z,2.20
2018-08-17T16:57:57.304Z,2.20
2018-08-17T17:00:26.486Z,2.63
2018-08-17T17:02:55.477Z,2.70
2018-08-17T17:05:24.569Z,2.30
2018-08-17T17:07:53.584Z,2.90
2018-08-17T17:10:24.569Z,3.00
2018-08-17T17:12:53.645Z,2.80
2018-08-17T17:15:22.763Z,2.27
2018-08-17T17:17:57.873Z,2.90
2018-08-17T17:20:32.753Z,2.80
2018-08-17T17:23:01.854Z,3.20
2018-08-17T17:25:31.192Z,3.50
2018-08-17T17:28:00.290Z,2.53
2018-08-17T17:30:54.204Z,3.37
2018-08-17T17:33:24.631Z,2.87
2018-08-17T17:35:54.919Z,2.70
2018-08-17T17:38:24.701Z,2.63
2018-08-17T17:40:54.812Z,2.43
2018-08-17T17:43:24.035Z,3.17
2018-08-17T17:45:53.511Z,2.93
2018-08-17T17:48:22.885Z,2.80
2018-08-17T17:50:52.369Z,2.13
2018-08-17T17:53:22.826Z,2.73
2018-08-17T17:55:51.979Z,2.40
2018-08-17T17:58:22.194Z,2.07
2018-08-17T18:00:58.692Z,2.27
2018-08-17T18:03:31.375Z,2.33
2018-08-17T18:06:02.928Z,2.33
2018-08-17T18:08:32.198Z,2.40
2018-08-17T18:11:01.839Z,2.17
2018-08-17T18:13:31.355Z,2.47
2018-08-17T18:16:01.634Z,2.77
2018-08-17T18:18:30.892Z,2.60
2018-08-17T18:21:02.386Z,2.53
2018-08-17T18:23:32.638Z,2.50
2018-08-17T18:26:02.044Z,2.13
2018-08-17T18:28:44.961Z,2.20
2018-08-17T18:31:14.310Z,2.40
2018-08-17T18:33:43.655Z,2.27
2018-08-17T18:36:18.525Z,2.17
2018-08-17T18:38:48.551Z,2.43
2018-08-17T18:41:18.476Z,2.87
2018-08-17T18:43:47.742Z,2.73
2018-08-17T18:46:17.272Z,2.30
2018-08-17T18:48:46.438Z,2.70
2018-08-17T18:51:15.817Z,2.83
2018-08-17T18:53:45.208Z,2.70
2018-08-17T18:56:14.760Z,2.80
2018-08-17T18:58:44.007Z,2.60
2018-08-17T19:01:14.072Z,2.57
2018-08-17T19:03:43.727Z,2.70
2018-08-17T19:06:13.253Z,3.30
2018-08-17T19:08:42.385Z,2.87
2018-08-17T19:11:12.545Z,2.80
2018-08-17T19:13:42.313Z,2.87
2018-08-17T19:16:12.926Z,3.17
2018-08-17T19:18:42.796Z,2.90
2018-08-17T19:21:14.095Z,2.47
2018-08-17T19:23:44.374Z,2.50
2018-08-17T19:26:14.841Z,2.40
2018-08-17T19:28:45.640Z,2.10
2018-08-17T19:31:14.791Z,2.83
2018-08-17T19:33:43.903Z,2.13
2018-08-17T19:36:12.989Z,2.30
2018-08-17T19:38:43.227Z,2.60
2018-08-17T19:41:12.664Z,2.73
2018-08-17T19:43:41.991Z,2.60
2018-08-17T19:46:11.292Z,2.67
2018-08-17T19:48:40.400Z,2.20
2018-08-17T19:51:14.686Z,2.90
2018-08-17T19:53:44.134Z,3.00
2018-08-17T19:56:13.747Z,2.37
2018-08-17T19:58:43.094Z,2.80
2018-08-17T20:01:13.180Z,2.77
2018-08-17T20:03:42.791Z,2.30
2018-08-17T20:06:11.820Z,2.30
2018-08-17T20:08:41.067Z,2.80
2018-08-17T20:11:10.207Z,3.10
2018-08-17T20:13:39.377Z,2.73
2018-08-17T20:19:15.136Z,2.73
2018-08-17T20:21:44.194Z,2.80
2018-08-17T20:24:13.603Z,3.40
2018-08-17T20:26:43.052Z,3.27
2018-08-17T20:29:12.123Z,3.30
2018-08-17T20:31:43.541Z,3.30
2018-08-17T20:34:12.729Z,3.50
2018-08-17T20:36:42.615Z,3.23
2018-08-17T20:39:13.359Z,2.80
2018-08-17T20:41:42.643Z,3.10
2018-08-17T20:44:12.533Z,2.87
2018-08-17T20:46:41.563Z,3.73
2018-08-17T20:49:10.621Z,2.60
2018-08-17T20:51:45.634Z,4.40
2018-08-17T20:54:14.680Z,4.20
2018-08-17T20:56:43.988Z,3.60
2018-08-17T20:59:13.422Z,3.20
2018-08-17T21:01:42.657Z,3.57
2018-08-17T21:04:12.365Z,3.83
2018-08-17T21:06:41.483Z,3.23
2018-08-17T21:09:10.655Z,2.83
2018-08-17T21:11:39.766Z,3.13
2018-08-17T21:14:09.033Z,2.50
2018-08-17T21:16:38.123Z,2.57
2018-08-17T21:19:08.433Z,3.40
2018-08-17T21:21:37.681Z,3.07
2018-08-17T21:24:06.721Z,4.43
2018-08-17T21:26:35.778Z,2.90
2018-08-17T21:29:05.351Z,2.93
2018-08-17T21:31:35.192Z,3.73
2018-08-17T21:34:04.235Z,3.57
2018-08-17T21:36:33.253Z,2.67
2018-08-17T21:39:14.913Z,2.90
2018-08-17T21:41:45.449Z,3.20
2018-08-17T21:44:18.530Z,2.80
2018-08-17T21:46:55.603Z,2.90
2018-08-17T21:49:26.107Z,3.90
2018-08-17T21:51:57.278Z,4.00
2018-08-17T21:54:26.737Z,3.70
2018-08-17T21:56:55.748Z,3.67
2018-08-17T21:59:25.911Z,3.30
2018-08-17T22:01:55.035Z,3.73
2018-08-17T22:04:24.476Z,3.20
2018-08-17T22:06:53.488Z,3.20
2018-08-17T22:09:33.635Z,3.63
2018-08-17T22:12:02.765Z,3.60
2018-08-17T22:14:31.800Z,4.87
2018-08-17T22:17:00.887Z,3.57
2018-08-17T22:19:42.930Z,4.10
2018-08-17T22:22:13.232Z,3.43
2018-08-17T22:24:47.673Z,2.97
2018-08-17T22:27:18.065Z,3.23
2018-08-17T22:29:48.923Z,4.13
2018-08-17T22:32:18.471Z,3.83
2018-08-17T22:34:47.996Z,3.23
2018-08-17T22:37:17.295Z,4.00
2018-08-17T22:39:47.068Z,4.00
2018-08-17T22:42:22.144Z,4.00
2018-08-17T22:44:53.234Z,3.90
2018-08-17T22:47:29.227Z,4.43
2018-08-17T22:50:01.811Z,3.40
2018-08-17T22:52:36.773Z,3.70
2018-08-17T22:55:09.552Z,4.10
2018-08-17T22:57:38.880Z,4.27
2018-08-17T23:00:28.955Z,3.70
2018-08-17T23:02:59.701Z,4.33
2018-08-17T23:05:34.485Z,3.50
2018-08-17T23:08:03.476Z,4.30
2018-08-17T23:10:32.789Z,3.93
2018-08-17T23:13:02.196Z,4.03
2018-08-17T23:15:31.763Z,4.10
2018-08-17T23:18:01.763Z,4.43
2018-08-17T23:20:36.025Z,4.20
2018-08-17T23:23:06.176Z,3.97
2018-08-17T23:25:35.556Z,3.20
2018-08-17T23:28:04.989Z,4.50
2018-08-17T23:30:34.052Z,3.73
2018-08-17T23:33:03.094Z,4.10
2018-08-17T23:35:32.137Z,4.17
2018-08-17T23:38:01.093Z,4.00
2018-08-17T23:40:30.146Z,3.77
2018-08-17T23:42:59.132Z,4.07
2018-08-17T23:45:28.181Z,4.67
2018-08-17T23:47:57.562Z,4.37
2018-08-17T23:50:26.671Z,3.60
2018-08-17T23:52:55.740Z,3.17
2018-08-17T23:55:24.743Z,3.40
2018-08-17T23:57:53.731Z,4.20
